Time;durP1;ratioP1;P1;durP2;ratioP2;P2;SDS_P1;SDS_P2;PMS_P1;PMS_P2;Temp;Humidity;BMP_temperature;BMP_pressure;BME280_temperature;BME280_humidity;BME280_pressure;Samples;Min_cycle;Max_cycle;Signal;HPM_P1;HPM_P2
2022/05/02 00:00:52;;;;;;;13.20;8.65;;;;;;;;;;7395429;19;20014;-61
2022/05/02 00:03:21;;;;;;;14.52;8.57;;;;;;;;;;7396995;19;20034;-61
2022/05/02 00:05:50;;;;;;;14.75;9.02;;;6.50;99.90;;;;;;7398147;19;20361;-62
2022/05/02 00:08:19;;;;;;;15.23;9.02;;;6.60;99.90;;;;;;7396179;19;20347;-62
2022/05/02 00:10:52;;;;;;;16.80;8.80;;;6.70;99.90;;;;;;7397584;19;20006;-62
2022/05/02 00:13:21;;;;;;;12.02;8.43;;;6.60;99.90;;;;;;7398920;19;20046;-62
2022/05/02 00:15:50;;;;;;;17.08;9.65;;;6.60;99.90;;;;;;7397683;19;20026;-61
2022/05/02 00:18:19;;;;;;;14.05;8.77;;;;;;;;;;7395835;19;20018;-62
2022/05/02 00:20:50;;;;;;;15.15;9.35;;;6.60;99.90;;;;;;7397174;19;20038;-61
2022/05/02 00:23:19;;;;;;;15.80;9.00;;;6.70;99.90;;;;;;7394598;19;20019;-61
2022/05/02 00:25:48;;;;;;;14.55;8.95;;;6.80;99.90;;;;;;7398029;19;20066;-61
2022/05/02 00:28:19;;;;;;;15.50;9.75;;;6.70;99.90;;;;;;7395609;19;20018;-62
2022/05/02 00:30:49;;;;;;;14.63;9.55;;;;;;;;;;7394770;19;20473;-61
2022/05/02 00:33:18;;;;;;;15.65;9.05;;;7.00;99.90;;;;;;7395711;19;20018;-61
2022/05/02 00:35:47;;;;;;;14.50;9.73;;;6.90;99.90;;;;;;7394711;19;20014;-62
2022/05/02 00:38:16;;;;;;;14.85;9.07;;;;;;;;;;7395095;19;20014;-61
2022/05/02 00:40:45;;;;;;;15.70;9.57;;;6.50;99.90;;;;;;7396710;19;20034;-61
2022/05/02 00:43:15;;;;;;;15.18;9.15;;;6.80;99.90;;;;;;7393902;19;20046;-62
2022/05/02 00:45:46;;;;;;;15.93;8.40;;;6.70;99.90;;;;;;7392654;19;20021;-61
2022/05/02 00:48:15;;;;;;;15.07;9.23;;;6.80;99.90;;;;;;7396524;19;20039;-62
2022/05/02 00:50:47;;;;;;;14.85;9.43;;;6.40;99.90;;;;;;7397068;19;20476;-62
2022/05/02 00:53:17;;;;;;;13.88;9.60;;;6.40;99.90;;;;;;7395691;19;20014;-62
2022/05/02 00:55:46;;;;;;;13.02;8.45;;;;;;;;;;7394541;19;20019;-61
2022/05/02 00:58:17;;;;;;;15.07;8.88;;;6.40;99.90;;;;;;7401806;19;20018;-61
2022/05/02 01:00:48;;;;;;;13.25;8.65;;;6.30;99.90;;;;;;7402071;19;20018;-61
2022/05/02 01:03:18;;;;;;;12.68;8.88;;;6.10;99.90;;;;;;7404670;19;20034;-61
2022/05/02 01:08:45;;;;;;;14.50;8.65;;;6.10;99.90;;;;;;7397254;19;20022;-62
2022/05/02 01:11:15;;;;;;;15.82;9.63;;;6.00;99.90;;;;;;7401526;19;20023;-62
2022/05/02 01:13:46;;;;;;;14.45;9.48;;;6.60;99.90;;;;;;7401695;19;20018;-62
2022/05/02 01:16:19;;;;;;;17.48;9.77;;;6.20;99.90;;;;;;7403534;19;20026;-62
2022/05/02 01:18:51;;;;;;;14.77;8.95;;;6.60;99.90;;;;;;7401198;19;20046;-62
2022/05/02 01:21:26;;;;;;;17.85;9.73;;;6.10;99.90;;;;;;7401534;19;20560;-62
2022/05/02 01:23:57;;;;;;;16.05;9.75;;;6.00;99.90;;;;;;7400985;19;20007;-62
2022/05/02 01:26:26;;;;;;;15.45;9.23;;;6.00;99.90;;;;;;7401806;19;20022;-60
2022/05/02 01:28:57;;;;;;;14.73;9.30;;;6.00;99.90;;;;;;7400135;19;20015;-61
2022/05/02 01:31:26;;;;;;;16.85;9.00;;;;;;;;;;7400729;19;20015;-61
2022/05/02 01:33:55;;;;;;;14.63;9.50;;;5.70;99.90;;;;;;7401644;19;20014;-61
2022/05/02 01:36:27;;;;;;;14.27;8.68;;;5.90;99.90;;;;;;7402462;19;20010;-61
2022/05/02 01:38:56;;;;;;;15.65;9.63;;;;;;;;;;7402792;19;20088;-61
2022/05/02 01:41:25;;;;;;;14.52;9.63;;;5.80;99.90;;;;;;7400021;19;20042;-61
2022/05/02 01:43:54;;;;;;;15.18;9.38;;;5.70;99.90;;;;;;7399398;19;20018;-62
2022/05/02 01:46:23;;;;;;;17.73;9.35;;;5.70;99.90;;;;;;7398934;19;20484;-61
2022/05/02 01:48:52;;;;;;;14.57;9.23;;;5.70;99.90;;;;;;7402467;19;20082;-61
2022/05/02 01:51:21;;;;;;;15.43;9.68;;;5.70;99.90;;;;;;7399993;19;20042;-61
2022/05/02 01:53:53;;;;;;;14.57;9.85;;;5.70;99.90;;;;;;7397648;19;20024;-61
2022/05/02 01:56:22;;;;;;;15.07;10.13;;;;;;;;;;7401940;19;20381;-62
2022/05/02 01:58:51;;;;;;;17.55;10.07;;;5.60;99.90;;;;;;7402339;19;20015;-62
2022/05/02 02:01:20;;;;;;;14.52;9.85;;;5.60;99.90;;;;;;7401476;19;20014;-62
2022/05/02 02:03:49;;;;;;;14.45;9.80;;;;;;;;;;7398787;19;20018;-62
2022/05/02 02:06:15;;;;;;;19.13;10.20;;;5.80;99.90;;;;;;7402914;19;20082;-62
2022/05/02 02:08:44;;;;;;;16.85;10.00;;;5.60;99.90;;;;;;7401195;19;20095;-62
2022/05/02 02:11:17;;;;;;;15.43;10.40;;;6.10;99.90;;;;;;7398969;19;20521;-62
2022/05/02 02:13:47;;;;;;;18.33;10.13;;;5.70;99.90;;;;;;7398961;19;20106;-61
2022/05/02 02:16:17;;;;;;;14.15;9.65;;;5.40;99.90;;;;;;7401696;19;20480;-62
2022/05/02 02:18:46;;;;;;;18.85;10.23;;;5.60;99.90;;;;;;7399128;19;20003;-62
2022/05/02 02:21:15;;;;;;;14.48;9.55;;;5.50;99.90;;;;;;7399150;19;20090;-62
2022/05/02 02:23:44;;;;;;;14.80;9.82;;;5.50;99.90;;;;;;7398595;19;20461;-62
2022/05/02 02:26:14;;;;;;;14.65;9.40;;;;;;;;;;7398973;19;20025;-62
2022/05/02 02:28:46;;;;;;;17.33;10.20;;;;;;;;;;7398455;19;20014;-62
2022/05/02 02:31:15;;;;;;;19.20;10.63;;;5.10;99.90;;;;;;7398177;19;20034;-62
2022/05/02 02:33:46;;;;;;;15.52;10.07;;;5.30;99.90;;;;;;7398172;19;20019;-62
2022/05/02 02:36:15;;;;;;;18.98;10.32;;;5.80;99.90;;;;;;7400246;19;20014;-61
2022/05/02 02:38:44;;;;;;;16.42;9.98;;;;;;;;;;7399978;19;20032;-62
2022/05/02 02:41:13;;;;;;;15.63;9.85;;;5.40;99.90;;;;;;7400846;19;20485;-61
2022/05/02 02:43:45;;;;;;;16.95;10.18;;;6.00;99.90;;;;;;7398435;19;20018;-62
2022/05/02 02:46:14;;;;;;;16.00;9.82;;;5.50;99.90;;;;;;7399064;19;20042;-62
2022/05/02 02:48:43;;;;;;;16.25;10.15;;;5.40;99.90;;;;;;7398686;19;20022;-61
2022/05/02 02:51:12;;;;;;;16.00;9.60;;;5.40;99.90;;;;;;7398547;19;20070;-61
2022/05/02 02:53:40;;;;;;;16.40;9.65;;;5.20;99.90;;;;;;7396827;19;20529;-62
2022/05/02 02:56:09;;;;;;;14.93;9.60;;;5.70;99.90;;;;;;7398963;19;20347;-62
2022/05/02 02:58:39;;;;;;;16.48;10.00;;;5.40;99.90;;;;;;7396996;19;20018;-62
2022/05/02 03:01:10;;;;;;;17.02;10.88;;;;;;;;;;7398337;19;20034;-62
2022/05/02 03:03:40;;;;;;;14.02;9.63;;;;;;;;;;7399490;19;20022;-62
2022/05/02 03:06:06;;;;;;;16.88;10.07;;;;;;;;;;7398234;19;20022;-62
2022/05/02 03:08:37;;;;;;;14.60;10.02;;;5.10;99.90;;;;;;7398604;19;20011;-62
2022/05/02 03:11:06;;;;;;;17.60;9.95;;;5.20;99.90;;;;;;7399658;19;20029;-62
2022/05/02 03:13:36;;;;;;;19.40;10.48;;;5.10;99.90;;;;;;7396361;19;20022;-62
2022/05/02 03:16:05;;;;;;;15.60;10.80;;;4.80;99.90;;;;;;7399145;19;20086;-62
2022/05/02 03:18:37;;;;;;;17.20;10.77;;;4.90;99.90;;;;;;7398627;19;20015;-63
2022/05/02 03:21:06;;;;;;;17.00;9.90;;;;;;;;;;7400218;19;20082;-62
2022/05/02 03:23:35;;;;;;;14.55;9.90;;;5.40;99.90;;;;;;7396455;19;20486;-62
2022/05/02 03:26:04;;;;;;;18.00;10.55;;;4.90;99.90;;;;;;7397803;19;20098;-62
2022/05/02 03:28:33;;;;;;;17.60;9.90;;;4.90;99.90;;;;;;7399398;19;20046;-62
2022/05/02 03:31:02;;;;;;;16.75;10.52;;;;;;;;;;7395436;19;20082;-62
2022/05/02 03:33:31;;;;;;;18.63;11.00;;;4.90;99.90;;;;;;7398791;19;20025;-62
2022/05/02 03:36:03;;;;;;;16.58;10.38;;;5.00;99.90;;;;;;7398531;19;20018;-62
2022/05/02 03:38:32;;;;;;;16.73;10.80;;;4.80;99.90;;;;;;7396861;19;20476;-62
2022/05/02 03:41:01;;;;;;;18.15;10.30;;;5.00;99.90;;;;;;7393745;19;20105;-62
2022/05/02 03:43:30;;;;;;;17.10;9.85;;;;;;;;;;7398971;19;20018;-62
2022/05/02 03:46:03;;;;;;;16.80;10.07;;;5.50;99.90;;;;;;7394497;19;20026;-63
2022/05/02 03:48:32;;;;;;;16.38;9.75;;;5.00;99.90;;;;;;7395732;19;20357;-62
2022/05/02 03:51:04;;;;;;;16.33;9.80;;;;;;;;;;7395353;19;20010;-62
2022/05/02 03:53:33;;;;;;;16.63;9.93;;;;;;;;;;7397165;19;20015;-62
2022/05/02 03:56:02;;;;;;;16.38;10.20;;;;;;;;;;7396917;19;20010;-62
2022/05/02 03:58:31;;;;;;;16.67;10.05;;;;;;;;;;7398345;19;20031;-61
2022/05/02 04:01:00;;;;;;;13.65;9.55;;;5.00;99.90;;;;;;7396413;19;20067;-61
2022/05/02 04:03:30;;;;;;;17.13;10.13;;;;;;;;;;7393709;19;20006;-62
2022/05/02 04:05:59;;;;;;;17.48;9.68;;;4.80;99.90;;;;;;7395118;19;20021;-61
2022/05/02 04:08:30;;;;;;;14.27;9.65;;;4.80;99.90;;;;;;7397761;19;20015;-62
2022/05/02 04:10:59;;;;;;;13.85;9.27;;;4.90;99.90;;;;;;7394073;19;20038;-62
2022/05/02 04:13:29;;;;;;;15.90;10.02;;;;;;;;;;7397711;19;20025;-62
2022/05/02 04:16:00;;;;;;;17.90;11.35;;;;;;;;;;7394474;19;20019;-61
2022/05/02 04:18:29;;;;;;;15.23;10.10;;;4.60;99.90;;;;;;7393333;19;20048;-62
2022/05/02 04:20:58;;;;;;;16.92;11.18;;;5.00;99.90;;;;;;7395343;19;20488;-62
2022/05/02 04:23:29;;;;;;;15.73;10.25;;;5.00;99.90;;;;;;7392548;19;20505;-62
2022/05/02 04:25:58;;;;;;;17.13;10.82;;;5.10;99.90;;;;;;7397532;19;20082;-62
2022/05/02 04:28:28;;;;;;;17.55;10.60;;;;;;;;;;7397613;19;20010;-62
2022/05/02 04:30:57;;;;;;;15.70;11.10;;;5.10;99.90;;;;;;7396436;19;20548;-62
2022/05/02 04:33:26;;;;;;;19.63;11.48;;;;;;;;;;7403179;19;20034;-62
2022/05/02 04:35:55;;;;;;;17.92;11.15;;;4.80;99.90;;;;;;7405315;19;20078;-62
2022/05/02 04:38:26;;;;;;;19.42;11.38;;;5.20;99.90;;;;;;7402819;19;20039;-62
2022/05/02 04:40:58;;;;;;;17.38;11.10;;;;;;;;;;7401715;19;20017;-62
2022/05/02 04:43:27;;;;;;;19.35;11.00;;;5.20;99.90;;;;;;7397686;19;20018;-62
2022/05/02 04:45:56;;;;;;;21.42;12.73;;;5.30;99.90;;;;;;7401520;19;20034;-62
2022/05/02 04:48:25;;;;;;;20.00;13.35;;;5.30;99.90;;;;;;7403385;19;20015;-62
2022/05/02 04:50:54;;;;;;;27.15;13.57;;;5.40;99.90;;;;;;7400024;19;20011;-61
2022/05/02 04:53:23;;;;;;;21.80;13.52;;;5.80;99.90;;;;;;7403046;19;20034;-62
2022/05/02 04:55:52;;;;;;;21.92;13.45;;;5.40;99.90;;;;;;7404757;19;20477;-62
2022/05/02 04:58:25;;;;;;;20.50;13.57;;;5.50;99.90;;;;;;7402182;19;20022;-62
2022/05/02 05:00:56;;;;;;;20.50;13.02;;;5.60;99.90;;;;;;7402616;19;20032;-62
2022/05/02 05:03:26;;;;;;;20.05;12.70;;;;;;;;;;7401207;19;20018;-62
2022/05/02 05:05:57;;;;;;;21.77;12.35;;;5.60;99.90;;;;;;7402088;19;20018;-62
2022/05/02 05:08:27;;;;;;;19.83;13.13;;;;;;;;;;7400273;19;20090;-62
2022/05/02 05:11:02;;;;;;;24.30;14.15;;;;;;;;;;7400573;19;20020;-61
2022/05/02 05:13:39;;;;;;;23.92;13.10;;;;;;;;;;7401642;19;20077;-62
2022/05/02 05:16:21;;;;;;;21.67;14.18;;;;;;;;;;7399784;19;20006;-62
2022/05/02 05:19:00;;;;;;;19.92;12.90;;;;;;;;;;7402312;19;20018;-62
2022/05/02 05:21:37;;;;;;;22.65;13.40;;;6.10;99.90;;;;;;7399720;19;20038;-62
2022/05/02 05:24:15;;;;;;;21.67;12.98;;;;;;;;;;7401417;19;20331;-62
2022/05/02 05:26:52;;;;;;;20.00;13.43;;;6.10;99.90;;;;;;7398811;19;20418;-62
2022/05/02 05:29:30;;;;;;;23.23;13.85;;;;;;;;;;7399441;19;20024;-62
2022/05/02 05:32:12;;;;;;;19.10;12.65;;;6.20;99.90;;;;;;7399265;19;20055;-65
2022/05/02 05:34:47;;;;;;;19.20;12.60;;;;;;;;;;7400131;19;20085;-61
2022/05/02 05:37:44;;;;;;;18.40;11.88;;;6.70;99.90;;;;;;7401913;19;20014;-62
2022/05/02 05:40:21;;;;;;;18.25;11.80;;;6.50;99.90;;;;;;7401273;19;20078;-62
2022/05/02 05:43:02;;;;;;;20.33;12.68;;;6.60;99.90;;;;;;7402016;19;20081;-62
2022/05/02 05:45:56;;;;;;;22.42;12.45;;;6.70;99.90;;;;;;7398044;19;20018;-62
2022/05/02 05:48:38;;;;;;;18.60;12.35;;;6.60;99.90;;;;;;7399158;19;20039;-61
2022/05/02 05:51:16;;;;;;;17.48;12.18;;;;;;;;;;7397644;19;20014;-61
2022/05/02 05:53:53;;;;;;;17.77;11.93;;;6.80;99.90;;;;;;7400213;19;20017;-61
2022/05/02 05:56:42;;;;;;;19.23;12.82;;;6.80;99.90;;;;;;7397380;19;20023;-61
2022/05/02 05:59:19;;;;;;;18.60;12.25;;;7.10;99.90;;;;;;7401071;19;20019;-62
2022/05/02 06:02:07;;;;;;;20.05;12.45;;;7.10;99.90;;;;;;7399856;19;20018;-61
2022/05/02 06:04:39;;;;;;;15.75;11.32;;;7.20;99.90;;;;;;7397974;19;20022;-61
2022/05/02 06:07:11;;;;;;;19.02;12.05;;;7.40;99.90;;;;;;7399398;19;20002;-61
2022/05/02 06:09:41;;;;;;;18.73;12.38;;;7.60;99.90;;;;;;7395346;19;20720;-61
2022/05/02 06:12:15;;;;;;;14.75;11.88;;;7.40;99.90;;;;;;7399656;19;20014;-62
2022/05/02 06:20:17;;;;;;;16.50;11.60;;;7.80;99.90;;;;;;7399740;19;20527;-65
2022/05/02 06:22:49;;;;;;;16.48;11.63;;;7.80;99.90;;;;;;7403599;19;20046;-62
2022/05/02 06:25:20;;;;;;;16.33;11.30;;;8.00;99.90;;;;;;7398318;19;20014;-62
2022/05/02 06:27:51;;;;;;;14.20;10.55;;;8.20;99.90;;;;;;7399508;19;20035;-62
2022/05/02 06:30:22;;;;;;;14.52;10.30;;;8.50;99.90;;;;;;7395899;19;20011;-62
2022/05/02 06:32:54;;;;;;;15.68;11.15;;;8.40;99.90;;;;;;7396078;19;20018;-64
2022/05/02 06:35:25;;;;;;;13.88;10.38;;;8.50;99.90;;;;;;7401341;19;20018;-62
2022/05/02 06:38:03;;;;;;;11.35;9.68;;;8.20;99.90;;;;;;7402538;19;20094;-61
2022/05/02 06:40:39;;;;;;;14.25;10.32;;;8.70;99.90;;;;;;7398023;19;20327;-62
2022/05/02 06:43:15;;;;;;;;;;;8.70;99.90;;;;;;7399894;19;20378;-61
2022/05/02 06:45:55;;;;;;;12.40;9.48;;;8.80;99.90;;;;;;7398635;19;19919;-62
2022/05/02 06:48:39;;;;;;;16.17;9.35;;;8.70;99.90;;;;;;7397803;19;20015;-62
2022/05/02 06:51:10;;;;;;;12.35;9.40;;;9.10;99.90;;;;;;7395577;19;20010;-62
2022/05/02 06:54:04;;;;;;;12.27;8.43;;;9.10;99.90;;;;;;7400295;19;20044;-62
2022/05/02 06:56:44;;;;;;;11.30;8.70;;;9.30;99.90;;;;;;7399174;19;20038;-62
2022/05/02 06:59:28;;;;;;;10.18;8.10;;;9.30;99.90;;;;;;7397354;19;20345;-62
2022/05/02 07:02:00;;;;;;;10.85;7.22;;;9.40;99.90;;;;;;7396828;19;20014;-62
2022/05/02 07:04:44;;;;;;;9.07;7.43;;;9.50;99.90;;;;;;7397496;19;20003;-62
2022/05/02 07:07:36;;;;;;;10.00;8.32;;;9.60;99.90;;;;;;7401266;19;20487;-61
2022/05/02 07:10:08;;;;;;;9.13;6.90;;;9.70;99.90;;;;;;7395786;19;20006;-62
2022/05/02 07:12:43;;;;;;;8.30;6.70;;;10.10;99.90;;;;;;7396314;19;20015;-62
2022/05/02 07:15:20;;;;;;;10.60;7.13;;;10.00;99.90;;;;;;7396764;19;20007;-61
2022/05/02 07:18:05;;;;;;;7.93;6.65;;;10.10;99.90;;;;;;7397167;19;20006;-61
2022/05/02 07:20:56;;;;;;;10.10;6.60;;;10.20;99.90;;;;;;7400728;19;20070;-61
2022/05/02 07:23:41;;;;;;;7.75;6.95;;;10.60;99.90;;;;;;7396660;19;20019;-62
2022/05/02 07:26:16;;;;;;;8.88;6.97;;;10.30;99.90;;;;;;7398101;19;20020;-62
2022/05/02 07:28:47;;;;;;;8.57;6.38;;;10.60;99.90;;;;;;7397698;19;20493;-62
2022/05/02 07:31:20;;;;;;;8.32;6.57;;;10.80;99.90;;;;;;7393133;19;20018;-62
2022/05/02 07:33:52;;;;;;;11.00;6.30;;;10.70;99.90;;;;;;7397293;19;20014;-62
2022/05/02 07:36:25;;;;;;;8.73;6.22;;;10.60;99.90;;;;;;7398844;19;20043;-62
2022/05/02 07:38:56;;;;;;;9.18;6.15;;;10.90;99.90;;;;;;7396584;19;20030;-62
2022/05/02 07:41:27;;;;;;;8.43;6.03;;;11.00;99.90;;;;;;7396087;19;20026;-61
2022/05/02 07:44:01;;;;;;;9.00;6.13;;;11.10;99.90;;;;;;7389397;19;20017;-62
2022/05/02 07:46:33;;;;;;;10.27;5.70;;;11.10;99.50;;;;;;7394450;19;20086;-62
2022/05/02 07:49:05;;;;;;;8.25;5.60;;;11.40;99.60;;;;;;7386072;19;20122;-62
2022/05/02 07:51:43;;;;;;;8.15;5.70;;;11.30;99.90;;;;;;7395578;19;20082;-63
2022/05/02 07:54:18;;;;;;;8.50;5.63;;;11.40;99.90;;;;;;7394613;19;20018;-61
2022/05/02 07:56:50;;;;;;;8.13;5.75;;;11.50;99.90;;;;;;7392369;19;20018;-62
2022/05/02 07:59:21;;;;;;;10.38;5.85;;;11.50;99.80;;;;;;7395991;19;20098;-62
2022/05/02 08:01:51;;;;;;;8.32;5.63;;;11.60;99.60;;;;;;7394720;19;20492;-62
2022/05/02 08:04:20;;;;;;;7.63;5.75;;;11.60;98.30;;;;;;7389980;19;20014;-62
2022/05/02 08:07:06;;;;;;;7.88;5.90;;;11.80;98.70;;;;;;7381650;19;20015;-62
2022/05/02 08:10:05;;;;;;;9.10;5.97;;;11.90;97.80;;;;;;7386554;19;20018;-60
2022/05/02 08:12:40;;;;;;;10.35;6.65;;;11.90;99.10;;;;;;7372145;19;20030;-62
2022/05/02 08:15:15;;;;;;;8.15;6.43;;;12.20;98.10;;;;;;7378446;19;20066;-62
2022/05/02 08:17:58;;;;;;;8.50;5.40;;;12.20;98.70;;;;;;7391621;19;20408;-63
2022/05/02 08:20:38;;;;;;;9.77;6.15;;;12.30;98.90;;;;;;7396481;19;20331;-62
2022/05/02 08:29:04;;;;;;;13.27;5.88;;;12.70;98.10;;;;;;7389458;19;20015;-62
2022/05/02 08:31:44;;;;;;;8.10;6.00;;;12.70;97.70;;;;;;7394694;19;20010;-62
2022/05/02 08:34:26;;;;;;;10.82;6.03;;;12.60;97.50;;;;;;7397002;19;20382;-61
2022/05/02 08:37:10;;;;;;;7.75;5.68;;;12.70;97.10;;;;;;7394136;19;20014;-61
2022/05/02 08:39:56;;;;;;;13.50;6.47;;;12.70;96.00;;;;;;7396641;19;20491;-62
2022/05/02 08:42:53;;;;;;;8.30;6.00;;;12.80;97.50;;;;;;7395171;19;20094;-62
2022/05/02 08:46:00;;;;;;;11.20;6.22;;;12.90;96.90;;;;;;7397564;19;20494;-62
2022/05/02 08:48:44;;;;;;;;;;;13.00;95.60;;;;;;7387235;19;20025;-61
2022/05/02 08:51:37;;;;;;;10.73;6.25;;;12.90;94.40;;;;;;7393314;19;20269;-62
2022/05/02 08:54:42;;;;;;;8.30;5.90;;;13.20;96.60;;;;;;7392203;19;20030;-62
2022/05/02 08:57:49;;;;;;;9.95;6.32;;;13.40;96.20;;;;;;7390984;19;20110;-62
2022/05/02 09:00:32;;;;;;;10.15;7.03;;;13.50;95.70;;;;;;7387824;19;20036;-62
2022/05/02 09:03:26;;;;;;;8.65;6.40;;;13.50;95.10;;;;;;7390525;19;20090;-61
2022/05/02 09:06:29;;;;;;;11.63;6.50;;;13.50;95.90;;;;;;7392162;19;20022;-62
2022/05/02 09:09:20;;;;;;;10.90;6.53;;;13.70;96.00;;;;;;7393437;19;20015;-61
2022/05/02 09:12:36;;;;;;;8.68;6.45;;;13.80;95.40;;;;;;7386597;19;20048;-61
2022/05/02 09:15:53;;;;;;;10.13;6.78;;;14.00;94.30;;;;;;7393328;19;20472;-61
2022/05/02 09:19:06;;;;;;;9.57;7.20;;;14.10;93.70;;;;;;7392945;19;20024;-61
2022/05/02 09:22:01;;;;;;;12.10;6.80;;;14.10;94.60;;;;;;7398520;19;20010;-62
2022/05/02 09:25:02;;;;;;;9.93;6.15;;;14.70;94.10;;;;;;7401412;19;20015;-62
2022/05/02 09:27:55;;;;;;;9.43;6.75;;;14.70;93.80;;;;;;7398283;19;20024;-62
2022/05/02 09:31:00;;;;;;;9.82;6.80;;;14.60;93.30;;;;;;7401874;19;20493;-62
2022/05/02 09:33:46;;;;;;;11.82;6.72;;;14.70;93.70;;;;;;7393360;19;20019;-62
2022/05/02 09:36:32;;;;;;;10.82;7.47;;;14.60;92.20;;;;;;7395068;19;20034;-62
2022/05/02 09:39:10;;;;;;;10.07;7.13;;;14.90;90.50;;;;;;7399286;19;20018;-61
2022/05/02 09:42:21;;;;;;;14.13;6.88;;;14.80;91.80;;;;;;7401093;19;20453;-61
2022/05/02 09:51:41;;;;;;;11.70;7.35;;;15.40;89.50;;;;;;7397217;19;20015;-63
2022/05/02 09:56:37;;;;;;;9.65;6.18;;;15.40;88.50;;;;;;7397432;19;20032;-62
2022/05/02 09:57:16;;;;;;;10.85;6.45;;;15.50;90.80;;;;;;7400667;19;20015;-62
2022/05/02 10:01:06;;;;;;;8.68;6.40;;;16.00;90.60;;;;;;7396954;19;20035;-63
2022/05/02 10:02:49;;;;;;;10.93;6.30;;;15.70;90.50;;;;;;7399299;19;20089;-61
2022/05/02 10:05:25;;;;;;;8.95;6.70;;;15.70;90.30;;;;;;7402454;19;20015;-61
2022/05/02 10:08:03;;;;;;;10.13;6.40;;;16.50;85.60;;;;;;7399447;19;20014;-62
2022/05/02 10:10:41;;;;;;;8.02;5.70;;;16.40;87.90;;;;;;7397478;19;20007;-62
2022/05/02 10:13:24;;;;;;;8.70;6.05;;;17.30;87.30;;;;;;7396048;19;20393;-62
2022/05/02 10:16:06;;;;;;;10.32;6.43;;;16.90;86.50;;;;;;7401579;19;20018;-62
2022/05/02 10:18:47;;;;;;;8.32;6.18;;;16.80;86.90;;;;;;7398756;19;20003;-62
2022/05/02 10:21:43;;;;;;;9.10;5.95;;;16.60;84.30;;;;;;7398275;19;20007;-63
2022/05/02 10:24:31;;;;;;;10.93;6.03;;;16.20;83.40;;;;;;7394025;19;20023;-62
2022/05/02 10:27:15;;;;;;;7.93;5.68;;;16.30;86.20;;;;;;7396713;19;20110;-62
2022/05/02 10:30:08;;;;;;;8.43;5.95;;;16.20;85.20;;;;;;7396743;19;20074;-61
2022/05/02 10:32:54;;;;;;;9.48;6.40;;;16.70;85.40;;;;;;7393883;19;20021;-61
2022/05/02 10:35:24;;;;;;;9.27;6.30;;;16.80;81.80;;;;;;7393257;19;20105;-63
2022/05/02 10:38:01;;;;;;;9.45;6.55;;;17.20;85.50;;;;;;7395879;19;20018;-63
2022/05/02 10:40:39;;;;;;;8.98;6.40;;;17.40;83.50;;;;;;7393575;19;20018;-62
2022/05/02 10:43:10;;;;;;;10.73;6.43;;;17.70;79.30;;;;;;7394249;19;20018;-61
2022/05/02 10:45:44;;;;;;;8.23;5.97;;;17.60;79.80;;;;;;7394193;19;20036;-63
2022/05/02 10:48:30;;;;;;;8.48;5.95;;;16.30;77.00;;;;;;7391811;19;20014;-63
2022/05/02 10:51:06;;;;;;;;;;;18.20;78.20;;;;;;7394976;19;20014;-63
2022/05/02 10:54:01;;;;;;;7.55;5.78;;;18.50;74.10;;;;;;7392641;19;19923;-63
2022/05/02 10:56:43;;;;;;;8.30;6.10;;;18.30;75.10;;;;;;7395388;19;20097;-62
2022/05/02 10:59:14;;;;;;;8.90;6.00;;;18.20;77.20;;;;;;7394315;19;20377;-62
2022/05/02 11:02:22;;;;;;;10.23;5.82;;;18.70;75.40;;;;;;7390936;19;20014;-61
2022/05/02 11:05:12;;;;;;;8.43;5.82;;;19.10;70.90;;;;;;7394628;19;20003;-61
2022/05/02 11:07:51;;;;;;;11.35;6.30;;;18.70;67.80;;;;;;7393669;19;20018;-61
2022/05/02 11:10:22;;;;;;;13.07;6.10;;;18.80;71.10;;;;;;7394491;19;20014;-61
2022/05/02 11:13:08;;;;;;;9.60;6.10;;;18.60;72.00;;;;;;7394536;19;20008;-62
2022/05/02 11:15:46;;;;;;;10.18;6.10;;;18.30;72.40;;;;;;7397228;19;20350;-63
2022/05/02 11:21:15;;;;;;;10.07;6.32;;;18.90;69.30;;;;;;7395093;19;20002;-62
2022/05/02 11:23:58;;;;;;;9.73;6.15;;;17.90;70.90;;;;;;7395597;19;20035;-61
2022/05/02 11:26:37;;;;;;;8.77;6.47;;;17.90;72.50;;;;;;7395071;19;20053;-61
2022/05/02 11:29:23;;;;;;;8.63;6.18;;;17.90;74.60;;;;;;7395685;19;20002;-61
2022/05/02 11:31:59;;;;;;;9.40;6.20;;;18.10;73.70;;;;;;7395085;19;20086;-62
2022/05/02 11:34:40;;;;;;;8.90;5.95;;;18.90;73.20;;;;;;7398176;19;20049;-62
2022/05/02 11:37:18;;;;;;;8.18;5.88;;;19.70;70.90;;;;;;7394787;19;20496;-62
2022/05/02 11:39:55;;;;;;;9.65;6.03;;;20.40;69.50;;;;;;7397340;19;20015;-62
2022/05/02 11:42:24;;;;;;;10.13;6.20;;;20.80;66.70;;;;;;7396043;19;20074;-63
2022/05/02 11:45:10;;;;;;;7.85;6.25;;;21.30;66.10;;;;;;7394612;19;20394;-63
2022/05/02 11:48:00;;;;;;;8.93;6.40;;;22.00;63.10;;;;;;7393613;19;20015;-63
2022/05/02 11:50:30;;;;;;;8.00;6.07;;;22.50;59.40;;;;;;7395764;19;20073;-63
2022/05/02 11:53:01;;;;;;;10.05;6.03;;;21.50;62.20;;;;;;7393401;19;19998;-63
2022/05/02 11:55:33;;;;;;;8.25;5.97;;;20.30;64.00;;;;;;7392099;19;20010;-62
2022/05/02 11:58:08;;;;;;;9.25;6.55;;;19.70;63.70;;;;;;7393171;19;20025;-63
2022/05/02 12:00:40;;;;;;;7.57;6.00;;;19.60;65.40;;;;;;7395746;19;20018;-62
2022/05/02 12:03:18;;;;;;;9.90;6.25;;;19.90;65.00;;;;;;7393241;19;20038;-62
2022/05/02 12:05:53;;;;;;;6.38;5.50;;;19.90;64.60;;;;;;7392698;19;20014;-62
2022/05/02 12:08:27;;;;;;;6.85;5.40;;;20.10;64.70;;;;;;7394310;19;20082;-63
2022/05/02 12:11:07;;;;;;;7.80;5.97;;;21.00;64.00;;;;;;7391068;19;20018;-62
2022/05/02 12:13:38;;;;;;;6.82;5.22;;;21.80;61.50;;;;;;7390578;19;20028;-63
2022/05/02 12:16:12;;;;;;;6.72;5.40;;;22.50;61.40;;;;;;7395687;19;20011;-63
2022/05/02 12:18:45;;;;;;;6.90;5.95;;;23.10;58.20;;;;;;7397783;19;20015;-60
2022/05/02 12:21:31;;;;;;;6.43;5.22;;;23.20;57.40;;;;;;7393926;19;20014;-62
2022/05/02 12:24:03;;;;;;;7.25;5.68;;;23.40;55.00;;;;;;7394823;19;20017;-62
2022/05/02 12:26:35;;;;;;;6.15;4.72;;;23.70;56.00;;;;;;7392890;19;20710;-62
2022/05/02 12:29:14;;;;;;;7.43;5.60;;;23.70;54.20;;;;;;7393572;19;20022;-62
2022/05/02 12:31:54;;;;;;;7.80;5.15;;;23.50;53.20;;;;;;7393804;19;20042;-62
2022/05/02 12:34:24;;;;;;;7.30;5.03;;;23.60;53.70;;;;;;7393065;19;20018;-62
2022/05/02 12:36:55;;;;;;;7.22;5.05;;;23.90;53.00;;;;;;7393707;19;20019;-62
2022/05/02 12:39:28;;;;;;;7.43;5.70;;;24.00;52.00;;;;;;7395283;19;20125;-62
2022/05/02 12:42:15;;;;;;;7.65;5.20;;;24.20;50.60;;;;;;7393753;19;20019;-62
2022/05/02 12:44:47;;;;;;;8.77;5.30;;;24.50;51.30;;;;;;7392747;19;20006;-62
2022/05/02 12:47:27;;;;;;;5.40;4.60;;;24.90;50.10;;;;;;7392727;19;20014;-62
2022/05/02 12:50:04;;;;;;;8.68;5.50;;;25.60;47.70;;;;;;7393285;19;20021;-63
2022/05/02 12:52:35;;;;;;;7.43;4.88;;;24.50;47.70;;;;;;7400968;19;20099;-62
2022/05/02 12:55:06;;;;;;;6.95;4.78;;;24.50;49.20;;;;;;7398171;19;20374;-62
2022/05/02 13:00:36;;;;;;;6.60;5.20;;;25.30;47.70;;;;;;7402194;19;20038;-63
2022/05/02 13:03:19;;;;;;;6.07;4.95;;;25.50;46.60;;;;;;7399771;19;20015;-63
2022/05/02 13:06:00;;;;;;;6.43;4.97;;;23.80;45.70;;;;;;7399653;19;20498;-64
2022/05/02 13:08:35;;;;;;;6.10;4.60;;;25.00;48.00;;;;;;7399689;19;20011;-62
2022/05/02 13:11:10;;;;;;;7.47;5.55;;;25.70;47.50;;;;;;7397062;19;20111;-63
2022/05/02 13:13:41;;;;;;;6.50;4.85;;;25.90;44.90;;;;;;7397219;19;20016;-63
2022/05/02 13:16:28;;;;;;;7.50;4.90;;;25.70;45.60;;;;;;7401991;19;20418;-63
2022/05/02 13:19:03;;;;;;;6.45;5.00;;;25.00;45.30;;;;;;7399860;19;20018;-62
2022/05/02 13:21:32;;;;;;;6.18;4.47;;;25.50;46.00;;;;;;7399207;19;20011;-63
2022/05/02 13:24:07;;;;;;;6.30;4.28;;;25.70;45.40;;;;;;7399486;19;20007;-62
2022/05/02 13:26:55;;;;;;;4.65;4.07;;;25.90;44.60;;;;;;7399103;19;20017;-64
2022/05/02 13:29:39;;;;;;;5.78;4.25;;;25.90;42.20;;;;;;7399236;19;20034;-62
2022/05/02 13:32:11;;;;;;;5.35;4.20;;;24.90;41.50;;;;;;7398614;19;20011;-63
2022/05/02 13:35:00;;;;;;;6.78;4.40;;;22.40;45.50;;;;;;7403457;19;20018;-63
2022/05/02 13:37:38;;;;;;;6.07;4.30;;;23.60;46.60;;;;;;7398981;19;20010;-63
2022/05/02 13:40:10;;;;;;;4.20;3.47;;;24.50;45.70;;;;;;7401860;19;20021;-63
2022/05/02 13:42:53;;;;;;;6.47;4.22;;;25.30;46.50;;;;;;7398095;19;20010;-62
2022/05/02 13:45:35;;;;;;;5.40;4.60;;;25.70;44.00;;;;;;7398565;19;20014;-63
2022/05/02 13:48:22;;;;;;;7.20;4.18;;;26.30;43.60;;;;;;7398177;19;20011;-63
2022/05/02 13:51:04;;;;;;;5.93;3.97;;;26.50;42.90;;;;;;7403461;19;20077;-63
2022/05/02 13:53:48;;;;;;;6.10;4.63;;;27.20;43.10;;;;;;7397990;19;20011;-62
2022/05/02 13:56:30;;;;;;;4.80;4.00;;;27.70;42.00;;;;;;7399432;19;20017;-62
2022/05/02 13:59:06;;;;;;;5.90;3.95;;;27.50;41.70;;;;;;7400547;19;20394;-63
2022/05/02 14:01:47;;;;;;;5.43;4.10;;;27.40;41.50;;;;;;7398466;19;20034;-63
2022/05/02 14:04:22;;;;;;;5.85;4.13;;;27.70;39.00;;;;;;7396053;19;20359;-63
2022/05/02 14:07:05;;;;;;;5.47;3.90;;;28.00;40.50;;;;;;7400578;19;20034;-63
2022/05/02 14:09:44;;;;;;;5.55;3.90;;;28.40;40.20;;;;;;7396265;19;20063;-60